Admiral — ZDFI5 — position and weather

sailwx.info

Track history (hours):
 
Tides and Currents Weather Stations Pressure Air Temp Water Temp Dewpoint Dewpoint Depression Visibility Wind Speed Wind Dir Waves Ship Positions

Admiral

Last reported at 2018-Apr-18 02:28 UTC. Time now 2018-Apr-19 23:25 UTC.
Position N 56°02' W 003°31'.

Length 168 m; draft 9 m.

Type: Ship (hazmat cat A). MMSI: 236175000.

Date/timePositionNaut miles runAvg speedWind from/ knotsBaromVisibWave heightAir tempDewpointWater temp
2018-Apr-18 02:28N 56°02' W 003°31'510.9
2018-Apr-18 02:00N 56°00' W 003°23'612.7
2018-Apr-18 01:30N 56°03' W 003°12'612.3
2018-Apr-18 01:00N 56°04' W 003°01'3 5.4
2018-Apr-18 00:30N 56°07' W 003°03'1 2.0
2018-Apr-18 00:00N 56°08' W 003°04'0 0.1
2018-Apr-17 23:30N 56°08' W 003°03'0 0.1
2018-Apr-17 22:58N 56°08' W 003°03'0 0.1
2018-Apr-17 22:28N 56°08' W 003°03'0 0.1
2018-Apr-17 21:58N 56°08' W 003°03'0 0.1
2018-Apr-17 21:29N 56°08' W 003°03'0 0.0
2018-Apr-17 20:59N 56°08' W 003°03'0 0.0
2018-Apr-17 20:29N 56°08' W 003°03'0 0.0
2018-Apr-17 20:00N 56°08' W 003°03'0 0.0
2018-Apr-17 19:30N 56°08' W 003°03'0 0.0
2018-Apr-17 19:00N 56°08' W 003°03'0 0.0
2018-Apr-17 18:28N 56°08' W 003°03'0 0.0
2018-Apr-17 17:58N 56°08' W 003°03'0 0.0
2018-Apr-17 17:28N 56°08' W 003°03'0 0.0
2018-Apr-17 16:59N 56°08' W 003°03'0 0.0
2018-Apr-17 16:29N 56°08' W 003°03'0 0.0
2018-Apr-17 15:59N 56°08' W 003°03'0 0.0
2018-Apr-17 15:30N 56°08' W 003°03'0 0.0
2018-Apr-17 15:00N 56°08' W 003°03'0 0.0
2018-Apr-17 14:30N 56°08' W 003°03'0 0.0
2018-Apr-17 13:58N 56°08' W 003°03'0 0.0
2018-Apr-17 13:28N 56°08' W 003°03'0 0.0
2018-Apr-17 12:58N 56°08' W 003°03'0 0.1
2018-Apr-17 12:29N 56°08' W 003°04'0 0.1
2018-Apr-17 11:59N 56°08' W 003°04'0 0.1
2018-Apr-17 11:29N 56°08' W 003°04'0 0.1
2018-Apr-17 11:00N 56°08' W 003°04'0 0.1
2018-Apr-17 10:27N 56°08' W 003°04'0 0.1
2018-Apr-17 10:00N 56°08' W 003°03'0 0.0
2018-Apr-17 09:28N 56°08' W 003°03'0 0.0
2018-Apr-17 08:58N 56°08' W 003°03'0 0.0
2018-Apr-17 08:28N 56°08' W 003°03'0 0.0
2018-Apr-17 07:59N 56°08' W 003°03'0 0.0
2018-Apr-17 07:29N 56°08' W 003°03'0 0.1
2018-Apr-17 06:59N 56°08' W 003°03'0 0.0
2018-Apr-17 06:30N 56°08' W 003°03'0 0.0
2018-Apr-17 06:00N 56°08' W 003°03'0 0.0
2018-Apr-17 05:30N 56°08' W 003°03'0 0.1
2018-Apr-17 04:58N 56°08' W 003°03'0 0.0
2018-Apr-17 04:28N 56°08' W 003°03'0 0.1
2018-Apr-17 03:58N 56°08' W 003°04'0 0.0
2018-Apr-17 03:29N 56°08' W 003°04'2 4.6
2018-Apr-17 03:00N 56°07' W 002°60'713.0
2018-Apr-17 02:30N 56°07' W 002°48'714.8
2018-Apr-17 02:00N 56°07' W 002°35'714.7
2018-Apr-17 01:30N 56°07' W 002°21'714.4
2018-Apr-17 01:00N 56°03' W 002°10'714.9
2018-Apr-17 00:30N 55°59' W 001°59'714.9
2018-Apr-17 00:00N 55°55' W 001°48'714.9
2018-Apr-16 23:30N 55°51' W 001°37'815.2
2018-Apr-16 23:00N 55°47' W 001°26'815.7
2018-Apr-16 22:30N 55°42' W 001°15'815.5
2018-Apr-16 22:00N 55°38' W 001°03'5515.1
2018-Apr-16 18:21N 54°51' W 000°12'514.2
2018-Apr-16 18:00N 54°47' W 000°07'713.8
2018-Apr-16 17:30N 54°41' W 000°01'713.6
2018-Apr-16 17:00N 54°35' E 000°03'713.3
2018-Apr-16 16:30N 54°29' E 000°07'713.2
2018-Apr-16 16:00N 54°22' E 000°11'612.3
2018-Apr-16 15:30N 54°17' E 000°15'510.5
2018-Apr-16 15:00N 54°12' E 000°18'510.4
2018-Apr-16 14:30N 54°07' E 000°21'510.7
2018-Apr-16 14:00N 54°02' E 000°25'4912.8
2018-Apr-16 10:12N 53°21' E 001°09'411.5
2018-Apr-16 09:52N 53°18' E 001°12'910.6
2018-Apr-16 09:02N 53°10' E 001°20'110.0
2018-Apr-16 08:54N 53°09' E 001°21'410.0
2018-Apr-16 08:27N 53°05' E 001°25'5 9.6
2018-Apr-16 07:58N 53°01' E 001°29'4 9.0
2018-Apr-16 07:29N 52°58' E 001°34'4 9.0
2018-Apr-16 07:00N 52°55' E 001°39'5 9.3
2018-Apr-16 06:27N 52°51' E 001°45'711.1
2018-Apr-16 05:48N 52°47' E 001°55'311.3
2018-Apr-16 05:30N 52°46' E 002°00'612.0
2018-Apr-16 04:59N 52°43' E 002°09'3214.3
2018-Apr-16 02:45N 52°11' E 002°10'414.7
2018-Apr-16 02:31N 52°07' E 002°10'1814.6
2018-Apr-16 01:17N 51°49' E 002°08'415.1
2018-Apr-16 01:00N 51°45' E 002°05'714.7
2018-Apr-16 00:30N 51°38' E 002°00'714.3
2018-Apr-15 23:59N 51°32' E 001°56'511.3
2018-Apr-15 23:30N 51°27' E 002°01'612.1
2018-Apr-15 22:59N 51°23' E 002°09'611.7
2018-Apr-15 22:30N 51°20' E 002°16'611.7
2018-Apr-15 22:00N 51°22' E 002°26'712.9
2018-Apr-15 21:30N 51°23' E 002°36'612.6
2018-Apr-15 21:00N 51°22' E 002°46'613.0
2018-Apr-15 20:30N 51°23' E 002°56'713.2
2018-Apr-15 20:00N 51°24' E 003°06'713.6
2018-Apr-15 19:30N 51°25' E 003°17'714.0
2018-Apr-15 19:00N 51°25' E 003°28'611.3
2018-Apr-15 18:31N 51°26' E 003°37'612.9
2018-Apr-15 18:01N 51°22' E 003°45'714.2
2018-Apr-15 17:31N 51°23' E 003°56'4 7.4
2018-Apr-15 17:01N 51°24' E 004°02'611.8
2018-Apr-15 16:30N 51°24' E 004°12'5 9.3
2018-Apr-15 16:01N 51°21' E 004°17'0 0.1
2018-Apr-15 15:30N 51°21' E 004°17'0 0.6
2018-Apr-15 15:00N 51°21' E 004°18'1 2.5
2018-Apr-15 14:30N 51°20' E 004°18'0 0.2
2018-Apr-15 13:51N 51°20' E 004°18'0 0.0
2018-Apr-15 13:18N 51°20' E 004°18'0 0.0
2018-Apr-15 12:10N 51°20' E 004°18'0 0.0
2018-Apr-15 08:59N 51°20' E 004°18'0 0.0
2018-Apr-15 08:30N 51°20' E 004°18'0 0.0
2018-Apr-15 08:00N 51°20' E 004°18'0 0.0
2018-Apr-15 07:30N 51°20' E 004°18'0 0.0
2018-Apr-15 06:43N 51°20' E 004°18'0 0.0
2018-Apr-15 06:25N 51°20' E 004°18'0 0.0
2018-Apr-15 05:55N 51°20' E 004°18'0 0.0
2018-Apr-15 05:04N 51°20' E 004°18'0 0.0
2018-Apr-15 04:59N 51°20' E 004°18'0 0.0
2018-Apr-15 04:29N 51°20' E 004°18'0 0.0
2018-Apr-15 03:59N 51°20' E 004°18'0 0.0
2018-Apr-15 03:20N 51°20' E 004°18'0 0.0
2018-Apr-15 02:57N 51°20' E 004°18'0 0.0
2018-Apr-15 02:30N 51°20' E 004°18'0 0.0
2018-Apr-15 02:00N 51°20' E 004°18'0 0.0
2018-Apr-15 01:16N 51°20' E 004°18'0 0.0
2018-Apr-15 00:55N 51°20' E 004°18'0 0.0
2018-Apr-15 00:22N 51°20' E 004°18'0 0.0
2018-Apr-14 23:58N 51°20' E 004°18'0 0.0
2018-Apr-14 23:29N 51°20' E 004°18'0 0.0
2018-Apr-14 22:53N 51°20' E 004°18'0 0.0
2018-Apr-14 22:29N 51°20' E 004°18'0 0.0
2018-Apr-14 21:57N 51°20' E 004°18'0 0.0
2018-Apr-14 21:18N 51°20' E 004°18'0 0.0
2018-Apr-14 21:00N 51°20' E 004°18'0 0.0
2018-Apr-14 20:30N 51°20' E 004°18'0 0.0
2018-Apr-14 19:58N 51°20' E 004°18'0 0.0
2018-Apr-14 19:22N 51°20' E 004°18'0 0.0
2018-Apr-14 18:58N 51°20' E 004°18'0 0.0
2018-Apr-14 18:23N 51°20' E 004°18'0 0.0
2018-Apr-14 17:53N 51°20' E 004°18'0 0.0
2018-Apr-14 17:23N 51°20' E 004°18'0 0.0
2018-Apr-14 16:59N 51°20' E 004°18'0 0.0
2018-Apr-14 16:24N 51°20' E 004°18'0 0.0
2018-Apr-14 14:34N 51°20' E 004°18'0 0.0
2018-Apr-14 14:19N 51°20' E 004°18'0 0.0
2018-Apr-14 13:49N 51°20' E 004°18'0 0.0
2018-Apr-14 12:14N 51°20' E 004°18'0 0.0
2018-Apr-14 11:56N 51°20' E 004°18'0 0.0
2018-Apr-14 11:24N 51°20' E 004°18'0 0.0
2018-Apr-14 10:51N 51°20' E 004°18'0 0.0
2018-Apr-14 10:30N 51°20' E 004°18'0 0.0
2018-Apr-14 09:42N 51°20' E 004°18'0 0.0
2018-Apr-14 09:25N 51°20' E 004°18'0 0.0
2018-Apr-14 08:52N 51°20' E 004°18'0 0.0
2018-Apr-14 08:22N 51°20' E 004°18'0 0.0
2018-Apr-14 07:29N 51°20' E 004°18'0 0.0
2018-Apr-14 06:59N 51°20' E 004°18'0 0.0
2018-Apr-14 06:29N 51°20' E 004°18'0 0.0
2018-Apr-14 05:59N 51°20' E 004°18'0 0.0
2018-Apr-14 05:09N 51°20' E 004°18'0 0.0
2018-Apr-14 05:00N 51°20' E 004°18'0 0.0
2018-Apr-14 04:12N 51°20' E 004°18'0 0.0
2018-Apr-14 03:48N 51°20' E 004°18'0 0.0
2018-Apr-14 02:58N 51°20' E 004°18'0 0.0
2018-Apr-14 02:22N 51°20' E 004°18'0 0.0
2018-Apr-14 01:35N 51°20' E 004°18'0 0.0
2018-Apr-14 01:05N 51°20' E 004°18'0 0.0
2018-Apr-14 00:59N 51°20' E 004°18'0 0.0
2018-Apr-13 23:42N 51°20' E 004°18'0 0.0
2018-Apr-13 23:21N 51°20' E 004°18'0 0.0
2018-Apr-13 22:54N 51°20' E 004°18'0 0.0
2018-Apr-13 22:27N 51°20' E 004°18'0 0.6
2018-Apr-13 22:00N 51°20' E 004°18'1 2.4
2018-Apr-13 21:31N 51°21' E 004°17'0 0.0
2018-Apr-13 21:00N 51°21' E 004°17'0 0.0
2018-Apr-13 20:31N 51°21' E 004°17'0 0.0
2018-Apr-13 20:00N 51°21' E 004°17'1 2.1
2018-Apr-13 19:31N 51°21' E 004°16'4 8.0
2018-Apr-13 19:00N 51°24' E 004°11'510.5
2018-Apr-13 18:30N 51°23' E 004°03'4 8.0
2018-Apr-13 18:00N 51°25' E 003°58'510.6
2018-Apr-13 17:31N 51°21' E 003°53'510.2
2018-Apr-13 17:01N 51°22' E 003°45'510.6
2018-Apr-13 16:30N 51°26' E 003°40'4 8.5
2018-Apr-13 16:00N 51°27' E 003°33'5 9.9
2018-Apr-13 15:30N 51°30' E 003°28'4 8.8
2018-Apr-13 15:00N 51°34' E 003°24'5 9.9
2018-Apr-13 14:31N 51°38' E 003°20'610.6
2018-Apr-13 13:55N 51°44' E 003°17'4 6.6
2018-Apr-13 13:21N 51°47' E 003°20'2 5.8
2018-Apr-13 12:58N 51°49' E 003°23'0 0.1
2018-Apr-13 11:37N 51°49' E 003°23'0 0.0
2018-Apr-13 02:40N 51°49' E 003°23'0 0.1
2018-Apr-13 02:22N 51°49' E 003°23'0 0.0
2018-Apr-13 01:47N 51°49' E 003°23'0 0.0
2018-Apr-12 13:49N 51°49' E 003°23'0 0.0
2018-Apr-12 12:38N 51°49' E 003°23'0 0.1
2018-Apr-12 12:14N 51°49' E 003°23'0 0.1
2018-Apr-12 11:53N 51°49' E 003°23'0 0.0
2018-Apr-12 11:18N 51°49' E 003°23'0 0.0
2018-Apr-11 15:30N 51°49' E 003°23'3 6.0
2018-Apr-11 15:00N 51°50' E 003°27'711.4
2018-Apr-11 14:24N 51°53' E 003°37'410.9
2018-Apr-11 14:00N 51°54' E 003°43'2 1.5
2018-Apr-11 12:52N 51°56' E 003°45'0 0.0
2018-Apr-11 12:22N 51°56' E 003°45'0 0.1
2018-Apr-11 11:58N 51°56' E 003°45'0 0.0
2018-Apr-11 11:26N 51°56' E 003°45'0 0.0
2018-Apr-11 10:50N 51°56' E 003°45'0 0.0
2018-Apr-11 10:29N 51°56' E 003°45'0 0.0
2018-Apr-11 09:59N 51°56' E 003°45'0 0.1
2018-Apr-11 09:07N 51°56' E 003°45'0 0.1
2018-Apr-11 08:58N 51°56' E 003°45'0 0.1
2018-Apr-11 08:28N 51°56' E 003°45'0 0.1
2018-Apr-11 07:47N 51°56' E 003°45'0 0.0
2018-Apr-11 07:20N 51°56' E 003°45'0 0.0
2018-Apr-11 06:59N 51°56' E 003°45'0 0.0
2018-Apr-11 06:27N 51°56' E 003°45'0 0.0
2018-Apr-11 05:57N 51°56' E 003°45'0 0.0
2018-Apr-11 05:27N 51°56' E 003°45'0 0.0
2018-Apr-11 04:58N 51°56' E 003°45'0 0.0
2018-Apr-11 04:28N 51°56' E 003°45'0 0.0
2018-Apr-11 03:58N 51°56' E 003°45'0 0.0
2018-Apr-11 03:29N 51°56' E 003°45'0 0.0
2018-Apr-11 02:59N 51°56' E 003°45'0 0.1
2018-Apr-11 02:29N 51°56' E 003°45'0 0.1
2018-Apr-11 01:12N 51°56' E 003°45'0 0.1
2018-Apr-11 00:54N 51°56' E 003°45'0 0.0
2018-Apr-11 00:25N 51°56' E 003°45'0 0.1
2018-Apr-10 23:49N 51°56' E 003°45'0 0.0
2018-Apr-10 23:28N 51°56' E 003°45'0 0.0
2018-Apr-10 22:56N 51°56' E 003°45'0 0.0
2018-Apr-10 22:20N 51°56' E 003°45'0 0.0
2018-Apr-10 21:59N 51°56' E 003°45'0 0.0
2018-Apr-10 21:12N 51°56' E 003°45'0 0.2
2018-Apr-10 20:51N 51°56' E 003°45'0 0.2
2018-Apr-10 20:18N 51°56' E 003°45'0 0.2
2018-Apr-10 19:54N 51°56' E 003°45'0 0.0
2018-Apr-10 19:28N 51°56' E 003°45'0 0.0
2018-Apr-10 18:52N 51°56' E 003°45'0 0.0
2018-Apr-10 18:25N 51°56' E 003°45'0 0.1
2018-Apr-10 17:59N 51°56' E 003°45'0 0.0
2018-Apr-10 17:29N 51°56' E 003°45'0 0.0
2018-Apr-10 16:59N 51°56' E 003°45'0 0.0
2018-Apr-10 16:30N 51°56' E 003°45'0 0.0
2018-Apr-10 15:57N 51°56' E 003°45'0 0.0
2018-Apr-10 15:30N 51°56' E 003°45'0 0.0
2018-Apr-10 14:55N 51°56' E 003°45'0 0.0
2018-Apr-10 14:28N 51°56' E 003°45'0 0.1
2018-Apr-10 13:58N 51°56' E 003°45'0 0.1
2018-Apr-10 13:29N 51°56' E 003°45'0 0.1
2018-Apr-10 12:44N 51°56' E 003°45'0 0.0
2018-Apr-10 12:26N 51°56' E 003°45'0 0.1
2018-Apr-10 11:54N 51°56' E 003°45'0 0.0
2018-Apr-10 11:09N 51°56' E 003°45'0 0.0
2018-Apr-10 10:51N 51°56' E 003°45'0 0.0
2018-Apr-10 10:31N 51°56' E 003°45'0 0.0
2018-Apr-10 09:58N 51°56' E 003°45'0 0.0
2018-Apr-10 09:10N 51°56' E 003°45'0 0.0
2018-Apr-10 08:58N 51°56' E 003°45'0 0.0
2018-Apr-10 08:29N 51°56' E 003°45'0 0.0
2018-Apr-10 07:59N 51°56' E 003°45'0 0.2
2018-Apr-10 07:23N 51°56' E 003°45'0 0.3
2018-Apr-10 06:57N 51°56' E 003°45'0 0.1
2018-Apr-10 06:30N 51°56' E 003°45'0 0.0
2018-Apr-10 05:48N 51°56' E 003°45'0 0.0
2018-Apr-10 05:28N 51°56' E 003°45'0 0.0
2018-Apr-10 04:55N 51°56' E 003°45'0 0.0
2018-Apr-10 04:25N 51°56' E 003°45'0 0.0
2018-Apr-10 03:47N 51°56' E 003°45'0 0.0
2018-Apr-10 03:29N 51°56' E 003°45'0 0.0
2018-Apr-10 02:44N 51°56' E 003°45'0 0.0
2018-Apr-10 02:30N 51°56' E 003°45'0 0.0
2018-Apr-10 01:57N 51°56' E 003°45'0 0.0
2018-Apr-10 01:24N 51°56' E 003°45'0 0.0
2018-Apr-10 00:58N 51°56' E 003°45'0 0.1
2018-Apr-10 00:28N 51°56' E 003°45'0 0.0
2018-Apr-09 23:52N 51°56' E 003°45'0 0.1
2018-Apr-09 23:26N 51°56' E 003°45'0 0.1
2018-Apr-09 22:59N 51°56' E 003°45'0 0.0
2018-Apr-09 22:11N 51°56' E 003°45'0 0.2
2018-Apr-09 21:57N 51°56' E 003°45'0 0.0
2018-Apr-09 21:24N 51°56' E 003°45'0 0.1
2018-Apr-09 20:57N 51°56' E 003°45'0 0.0
2018-Apr-09 20:30N 51°56' E 003°45'0 0.1
2018-Apr-09 19:43N 51°56' E 003°45'0 0.0
2018-Apr-09 19:28N 51°56' E 003°45'0 0.0
2018-Apr-09 18:38N 51°56' E 003°45'0 0.0
2018-Apr-09 18:29N 51°56' E 003°45'0 0.0
2018-Apr-09 17:26N 51°56' E 003°45'0 0.0
2018-Apr-09 16:54N 51°56' E 003°45'0 0.0
2018-Apr-09 16:30N 51°56' E 003°45'0 0.0
2018-Apr-09 16:00N 51°56' E 003°45'0 0.0
2018-Apr-09 15:19N 51°56' E 003°45'0 0.0
2018-Apr-09 14:55N 51°56' E 003°45'0 0.0
2018-Apr-09 14:28N 51°56' E 003°45'0 0.0
2018-Apr-09 13:56N 51°56' E 003°45'0 0.0
2018-Apr-09 13:20N 51°56' E 003°45'0 0.0
2018-Apr-09 11:57N 51°56' E 003°45'0 0.1
2018-Apr-09 11:30N 51°56' E 003°45'0 0.1
2018-Apr-09 10:46N 51°56' E 003°45'0 0.2
2018-Apr-09 10:28N 51°56' E 003°45'0 0.1
2018-Apr-09 09:55N 51°56' E 003°45'0 0.0
2018-Apr-09 09:25N 51°56' E 003°45'0 0.1
2018-Apr-09 08:59N 51°56' E 003°45'0 0.0
2018-Apr-09 08:29N 51°56' E 003°45'0 0.1
2018-Apr-09 06:45N 51°56' E 003°45'0 0.0
2018-Apr-09 06:27N 51°56' E 003°45'0 0.1
2018-Apr-09 05:55N 51°56' E 003°45'0 0.1
2018-Apr-09 05:25N 51°56' E 003°45'0 0.1
2018-Apr-09 04:58N 51°56' E 003°45'0 0.0
2018-Apr-09 04:29N 51°56' E 003°45'0 0.1
2018-Apr-09 03:53N 51°56' E 003°45'0 0.1
2018-Apr-09 03:29N 51°56' E 003°45'0 0.0
2018-Apr-09 02:12N 51°56' E 003°45'0 0.0
2018-Apr-09 02:00N 51°56' E 003°45'0 0.0
2018-Apr-09 01:19N 51°56' E 003°45'0 0.0
2018-Apr-09 00:43N 51°56' E 003°45'0 0.0
2018-Apr-09 00:22N 51°56' E 003°45'0 0.0
2018-Apr-08 23:53N 51°56' E 003°45'0 0.0
2018-Apr-08 23:29N 51°56' E 003°45'0 0.0
2018-Apr-08 22:59N 51°56' E 003°45'0 0.1
2018-Apr-08 22:30N 51°56' E 003°45'0 0.2
2018-Apr-08 21:48N 51°56' E 003°45'0 0.1
2018-Apr-08 21:24N 51°56' E 003°45'0 0.0
2018-Apr-08 21:01N 51°56' E 003°45'0 0.0
2018-Apr-08 20:19N 51°56' E 003°45'0 0.0
2018-Apr-08 19:58N 51°56' E 003°45'0 0.0
2018-Apr-08 19:23N 51°56' E 003°45'0 0.1
2018-Apr-08 18:59N 51°56' E 003°45'0 0.0
2018-Apr-08 18:26N 51°56' E 003°45'0 0.1
2018-Apr-08 17:59N 51°56' E 003°45'0 0.2
2018-Apr-08 17:30N 51°56' E 003°45'0 0.1
2018-Apr-08 16:54N 51°56' E 003°45'0 0.1
2018-Apr-08 16:27N 51°56' E 003°45'0 0.0
2018-Apr-08 15:58N 51°56' E 003°45'0 0.0
2018-Apr-08 15:25N 51°56' E 003°45'0 0.0
2018-Apr-08 14:58N 51°56' E 003°45'0 0.0
2018-Apr-08 14:29N 51°56' E 003°45'0 0.0
2018-Apr-08 13:56N 51°56' E 003°45'0 0.0
2018-Apr-08 13:29N 51°56' E 003°45'0 0.0
2018-Apr-08 13:00N 51°56' E 003°45'0 0.0
2018-Apr-08 12:30N 51°56' E 003°45'0 0.0
2018-Apr-08 12:00N 51°56' E 003°45'0 0.0
2018-Apr-08 11:25N 51°56' E 003°45'0 0.1
2018-Apr-08 10:58N 51°56' E 003°45'0 0.0
2018-Apr-08 10:28N 51°56' E 003°45'0 0.1
2018-Apr-08 09:53N 51°56' E 003°45'0 0.1
2018-Apr-08 09:17N 51°56' E 003°45'0 0.1
2018-Apr-08 08:59N 51°56' E 003°45'0 0.1
2018-Apr-08 08:24N 51°56' E 003°45'0 0.0
2018-Apr-08 08:00N 51°56' E 003°45'0 0.0
2018-Apr-08 07:27N 51°56' E 003°45'0 0.0
2018-Apr-08 06:55N 51°56' E 003°45'0 0.0
2018-Apr-08 06:22N 51°56' E 003°45'0 0.0
2018-Apr-08 05:58N 51°56' E 003°45'0 0.1
2018-Apr-08 05:26N 51°56' E 003°45'0 0.2
2018-Apr-08 04:59N 51°56' E 003°45'0 0.2
2018-Apr-08 04:26N 51°56' E 003°45'0 0.0
2018-Apr-08 04:00N 51°56' E 003°45'0 0.0
2018-Apr-08 03:24N 51°56' E 003°45'0 0.0
2018-Apr-08 02:57N 51°56' E 003°45'  
Track history (hours):
 
Tides and Currents Weather Stations Pressure Air Temp Water Temp Dewpoint Dewpoint Depression Visibility Wind Speed Wind Dir Waves Ship Positions

Admiral

Last reported at 2018-Apr-18 02:28 UTC. Time now 2018-Apr-19 23:25 UTC.
Position N 56°02' W 003°31'.

Length 168 m; draft 9 m.

Type: Ship (hazmat cat A). MMSI: 236175000.

Date/timePositionNaut miles runAvg speedWind from/ knotsBaromVisibWave heightAir tempDewpointWater temp
2018-Apr-18 02:28N 56°02' W 003°31'510.9
2018-Apr-18 02:00N 56°00' W 003°23'612.7
2018-Apr-18 01:30N 56°03' W 003°12'612.3
2018-Apr-18 01:00N 56°04' W 003°01'3 5.4
2018-Apr-18 00:30N 56°07' W 003°03'1 2.0
2018-Apr-18 00:00N 56°08' W 003°04'0 0.1
2018-Apr-17 23:30N 56°08' W 003°03'0 0.1
2018-Apr-17 22:58N 56°08' W 003°03'0 0.1
2018-Apr-17 22:28N 56°08' W 003°03'0 0.1
2018-Apr-17 21:58N 56°08' W 003°03'0 0.1
2018-Apr-17 21:29N 56°08' W 003°03'0 0.0
2018-Apr-17 20:59N 56°08' W 003°03'0 0.0
2018-Apr-17 20:29N 56°08' W 003°03'0 0.0
2018-Apr-17 20:00N 56°08' W 003°03'0 0.0
2018-Apr-17 19:30N 56°08' W 003°03'0 0.0
2018-Apr-17 19:00N 56°08' W 003°03'0 0.0
2018-Apr-17 18:28N 56°08' W 003°03'0 0.0
2018-Apr-17 17:58N 56°08' W 003°03'0 0.0
2018-Apr-17 17:28N 56°08' W 003°03'0 0.0
2018-Apr-17 16:59N 56°08' W 003°03'0 0.0
2018-Apr-17 16:29N 56°08' W 003°03'0 0.0
2018-Apr-17 15:59N 56°08' W 003°03'0 0.0
2018-Apr-17 15:30N 56°08' W 003°03'0 0.0
2018-Apr-17 15:00N 56°08' W 003°03'0 0.0
2018-Apr-17 14:30N 56°08' W 003°03'0 0.0
2018-Apr-17 13:58N 56°08' W 003°03'0 0.0
2018-Apr-17 13:28N 56°08' W 003°03'0 0.0
2018-Apr-17 12:58N 56°08' W 003°03'0 0.1
2018-Apr-17 12:29N 56°08' W 003°04'0 0.1
2018-Apr-17 11:59N 56°08' W 003°04'0 0.1
2018-Apr-17 11:29N 56°08' W 003°04'0 0.1
2018-Apr-17 11:00N 56°08' W 003°04'0 0.1
2018-Apr-17 10:27N 56°08' W 003°04'0 0.1
2018-Apr-17 10:00N 56°08' W 003°03'0 0.0
2018-Apr-17 09:28N 56°08' W 003°03'0 0.0
2018-Apr-17 08:58N 56°08' W 003°03'0 0.0
2018-Apr-17 08:28N 56°08' W 003°03'0 0.0
2018-Apr-17 07:59N 56°08' W 003°03'0 0.0
2018-Apr-17 07:29N 56°08' W 003°03'0 0.1
2018-Apr-17 06:59N 56°08' W 003°03'0 0.0
2018-Apr-17 06:30N 56°08' W 003°03'0 0.0
2018-Apr-17 06:00N 56°08' W 003°03'0 0.0
2018-Apr-17 05:30N 56°08' W 003°03'0 0.1
2018-Apr-17 04:58N 56°08' W 003°03'0 0.0
2018-Apr-17 04:28N 56°08' W 003°03'0 0.1
2018-Apr-17 03:58N 56°08' W 003°04'0 0.0
2018-Apr-17 03:29N 56°08' W 003°04'2 4.6
2018-Apr-17 03:00N 56°07' W 002°60'713.0
2018-Apr-17 02:30N 56°07' W 002°48'714.8
2018-Apr-17 02:00N 56°07' W 002°35'714.7
2018-Apr-17 01:30N 56°07' W 002°21'714.4
2018-Apr-17 01:00N 56°03' W 002°10'714.9
2018-Apr-17 00:30N 55°59' W 001°59'714.9
2018-Apr-17 00:00N 55°55' W 001°48'714.9
2018-Apr-16 23:30N 55°51' W 001°37'815.2
2018-Apr-16 23:00N 55°47' W 001°26'815.7
2018-Apr-16 22:30N 55°42' W 001°15'815.5
2018-Apr-16 22:00N 55°38' W 001°03'5515.1
2018-Apr-16 18:21N 54°51' W 000°12'514.2
2018-Apr-16 18:00N 54°47' W 000°07'713.8
2018-Apr-16 17:30N 54°41' W 000°01'713.6
2018-Apr-16 17:00N 54°35' E 000°03'713.3
2018-Apr-16 16:30N 54°29' E 000°07'713.2
2018-Apr-16 16:00N 54°22' E 000°11'612.3
2018-Apr-16 15:30N 54°17' E 000°15'510.5
2018-Apr-16 15:00N 54°12' E 000°18'510.4
2018-Apr-16 14:30N 54°07' E 000°21'510.7
2018-Apr-16 14:00N 54°02' E 000°25'4912.8
2018-Apr-16 10:12N 53°21' E 001°09'411.5
2018-Apr-16 09:52N 53°18' E 001°12'910.6
2018-Apr-16 09:02N 53°10' E 001°20'110.0
2018-Apr-16 08:54N 53°09' E 001°21'410.0
2018-Apr-16 08:27N 53°05' E 001°25'5 9.6
2018-Apr-16 07:58N 53°01' E 001°29'4 9.0
2018-Apr-16 07:29N 52°58' E 001°34'4 9.0
2018-Apr-16 07:00N 52°55' E 001°39'5 9.3
2018-Apr-16 06:27N 52°51' E 001°45'711.1
2018-Apr-16 05:48N 52°47' E 001°55'311.3
2018-Apr-16 05:30N 52°46' E 002°00'612.0
2018-Apr-16 04:59N 52°43' E 002°09'3214.3
2018-Apr-16 02:45N 52°11' E 002°10'414.7
2018-Apr-16 02:31N 52°07' E 002°10'1814.6
2018-Apr-16 01:17N 51°49' E 002°08'415.1
2018-Apr-16 01:00N 51°45' E 002°05'714.7
2018-Apr-16 00:30N 51°38' E 002°00'714.3
2018-Apr-15 23:59N 51°32' E 001°56'511.3
2018-Apr-15 23:30N 51°27' E 002°01'612.1
2018-Apr-15 22:59N 51°23' E 002°09'611.7
2018-Apr-15 22:30N 51°20' E 002°16'611.7
2018-Apr-15 22:00N 51°22' E 002°26'712.9
2018-Apr-15 21:30N 51°23' E 002°36'612.6
2018-Apr-15 21:00N 51°22' E 002°46'613.0
2018-Apr-15 20:30N 51°23' E 002°56'713.2
2018-Apr-15 20:00N 51°24' E 003°06'713.6
2018-Apr-15 19:30N 51°25' E 003°17'714.0
2018-Apr-15 19:00N 51°25' E 003°28'611.3
2018-Apr-15 18:31N 51°26' E 003°37'612.9
2018-Apr-15 18:01N 51°22' E 003°45'714.2
2018-Apr-15 17:31N 51°23' E 003°56'4 7.4
2018-Apr-15 17:01N 51°24' E 004°02'611.8
2018-Apr-15 16:30N 51°24' E 004°12'5 9.3
2018-Apr-15 16:01N 51°21' E 004°17'0 0.1
2018-Apr-15 15:30N 51°21' E 004°17'0 0.6
2018-Apr-15 15:00N 51°21' E 004°18'1 2.5
2018-Apr-15 14:30N 51°20' E 004°18'0 0.2
2018-Apr-15 13:51N 51°20' E 004°18'0 0.0
2018-Apr-15 13:18N 51°20' E 004°18'0 0.0
2018-Apr-15 12:10N 51°20' E 004°18'0 0.0
2018-Apr-15 08:59N 51°20' E 004°18'0 0.0
2018-Apr-15 08:30N 51°20' E 004°18'0 0.0
2018-Apr-15 08:00N 51°20' E 004°18'0 0.0
2018-Apr-15 07:30N 51°20' E 004°18'0 0.0
2018-Apr-15 06:43N 51°20' E 004°18'0 0.0
2018-Apr-15 06:25N 51°20' E 004°18'0 0.0
2018-Apr-15 05:55N 51°20' E 004°18'0 0.0
2018-Apr-15 05:04N 51°20' E 004°18'0 0.0
2018-Apr-15 04:59N 51°20' E 004°18'0 0.0
2018-Apr-15 04:29N 51°20' E 004°18'0 0.0
2018-Apr-15 03:59N 51°20' E 004°18'0 0.0
2018-Apr-15 03:20N 51°20' E 004°18'0 0.0
2018-Apr-15 02:57N 51°20' E 004°18'0 0.0
2018-Apr-15 02:30N 51°20' E 004°18'0 0.0
2018-Apr-15 02:00N 51°20' E 004°18'0 0.0
2018-Apr-15 01:16N 51°20' E 004°18'0 0.0
2018-Apr-15 00:55N 51°20' E 004°18'0 0.0
2018-Apr-15 00:22N 51°20' E 004°18'0 0.0
2018-Apr-14 23:58N 51°20' E 004°18'0 0.0
2018-Apr-14 23:29N 51°20' E 004°18'0 0.0
2018-Apr-14 22:53N 51°20' E 004°18'0 0.0
2018-Apr-14 22:29N 51°20' E 004°18'0 0.0
2018-Apr-14 21:57N 51°20' E 004°18'0 0.0
2018-Apr-14 21:18N 51°20' E 004°18'0 0.0
2018-Apr-14 21:00N 51°20' E 004°18'0 0.0
2018-Apr-14 20:30N 51°20' E 004°18'0 0.0
2018-Apr-14 19:58N 51°20' E 004°18'0 0.0
2018-Apr-14 19:22N 51°20' E 004°18'0 0.0
2018-Apr-14 18:58N 51°20' E 004°18'0 0.0
2018-Apr-14 18:23N 51°20' E 004°18'0 0.0
2018-Apr-14 17:53N 51°20' E 004°18'0 0.0
2018-Apr-14 17:23N 51°20' E 004°18'0 0.0
2018-Apr-14 16:59N 51°20' E 004°18'0 0.0
2018-Apr-14 16:24N 51°20' E 004°18'0 0.0
2018-Apr-14 14:34N 51°20' E 004°18'0 0.0
2018-Apr-14 14:19N 51°20' E 004°18'0 0.0
2018-Apr-14 13:49N 51°20' E 004°18'0 0.0
2018-Apr-14 12:14N 51°20' E 004°18'0 0.0
2018-Apr-14 11:56N 51°20' E 004°18'0 0.0
2018-Apr-14 11:24N 51°20' E 004°18'0 0.0
2018-Apr-14 10:51N 51°20' E 004°18'0 0.0
2018-Apr-14 10:30N 51°20' E 004°18'0 0.0
2018-Apr-14 09:42N 51°20' E 004°18'0 0.0
2018-Apr-14 09:25N 51°20' E 004°18'0 0.0
2018-Apr-14 08:52N 51°20' E 004°18'0 0.0
2018-Apr-14 08:22N 51°20' E 004°18'0 0.0
2018-Apr-14 07:29N 51°20' E 004°18'0 0.0
2018-Apr-14 06:59N 51°20' E 004°18'0 0.0
2018-Apr-14 06:29N 51°20' E 004°18'0 0.0
2018-Apr-14 05:59N 51°20' E 004°18'0 0.0
2018-Apr-14 05:09N 51°20' E 004°18'0 0.0
2018-Apr-14 05:00N 51°20' E 004°18'0 0.0
2018-Apr-14 04:12N 51°20' E 004°18'0 0.0
2018-Apr-14 03:48N 51°20' E 004°18'0 0.0
2018-Apr-14 02:58N 51°20' E 004°18'0 0.0
2018-Apr-14 02:22N 51°20' E 004°18'0 0.0
2018-Apr-14 01:35N 51°20' E 004°18'0 0.0
2018-Apr-14 01:05N 51°20' E 004°18'0 0.0
2018-Apr-14 00:59N 51°20' E 004°18'0 0.0
2018-Apr-13 23:42N 51°20' E 004°18'0 0.0
2018-Apr-13 23:21N 51°20' E 004°18'0 0.0
2018-Apr-13 22:54N 51°20' E 004°18'0 0.0
2018-Apr-13 22:27N 51°20' E 004°18'0 0.6
2018-Apr-13 22:00N 51°20' E 004°18'1 2.4
2018-Apr-13 21:31N 51°21' E 004°17'0 0.0
2018-Apr-13 21:00N 51°21' E 004°17'0 0.0
2018-Apr-13 20:31N 51°21' E 004°17'0 0.0
2018-Apr-13 20:00N 51°21' E 004°17'1 2.1
2018-Apr-13 19:31N 51°21' E 004°16'4 8.0
2018-Apr-13 19:00N 51°24' E 004°11'510.5
2018-Apr-13 18:30N 51°23' E 004°03'4 8.0
2018-Apr-13 18:00N 51°25' E 003°58'510.6
2018-Apr-13 17:31N 51°21' E 003°53'510.2
2018-Apr-13 17:01N 51°22' E 003°45'510.6
2018-Apr-13 16:30N 51°26' E 003°40'4 8.5
2018-Apr-13 16:00N 51°27' E 003°33'5 9.9
2018-Apr-13 15:30N 51°30' E 003°28'4 8.8
2018-Apr-13 15:00N 51°34' E 003°24'5 9.9
2018-Apr-13 14:31N 51°38' E 003°20'610.6
2018-Apr-13 13:55N 51°44' E 003°17'4 6.6
2018-Apr-13 13:21N 51°47' E 003°20'2 5.8
2018-Apr-13 12:58N 51°49' E 003°23'0 0.1
2018-Apr-13 11:37N 51°49' E 003°23'0 0.0
2018-Apr-13 02:40N 51°49' E 003°23'0 0.1
2018-Apr-13 02:22N 51°49' E 003°23'0 0.0
2018-Apr-13 01:47N 51°49' E 003°23'0 0.0
2018-Apr-12 13:49N 51°49' E 003°23'0 0.0
2018-Apr-12 12:38N 51°49' E 003°23'0 0.1
2018-Apr-12 12:14N 51°49' E 003°23'0 0.1
2018-Apr-12 11:53N 51°49' E 003°23'0 0.0
2018-Apr-12 11:18N 51°49' E 003°23'0 0.0
2018-Apr-11 15:30N 51°49' E 003°23'3 6.0
2018-Apr-11 15:00N 51°50' E 003°27'711.4
2018-Apr-11 14:24N 51°53' E 003°37'410.9
2018-Apr-11 14:00N 51°54' E 003°43'2 1.5
2018-Apr-11 12:52N 51°56' E 003°45'0 0.0
2018-Apr-11 12:22N 51°56' E 003°45'0 0.1
2018-Apr-11 11:58N 51°56' E 003°45'0 0.0
2018-Apr-11 11:26N 51°56' E 003°45'0 0.0
2018-Apr-11 10:50N 51°56' E 003°45'0 0.0
2018-Apr-11 10:29N 51°56' E 003°45'0 0.0
2018-Apr-11 09:59N 51°56' E 003°45'0 0.1
2018-Apr-11 09:07N 51°56' E 003°45'0 0.1
2018-Apr-11 08:58N 51°56' E 003°45'0 0.1
2018-Apr-11 08:28N 51°56' E 003°45'0 0.1
2018-Apr-11 07:47N 51°56' E 003°45'0 0.0
2018-Apr-11 07:20N 51°56' E 003°45'0 0.0
2018-Apr-11 06:59N 51°56' E 003°45'0 0.0
2018-Apr-11 06:27N 51°56' E 003°45'0 0.0
2018-Apr-11 05:57N 51°56' E 003°45'0 0.0
2018-Apr-11 05:27N 51°56' E 003°45'0 0.0
2018-Apr-11 04:58N 51°56' E 003°45'0 0.0
2018-Apr-11 04:28N 51°56' E 003°45'0 0.0
2018-Apr-11 03:58N 51°56' E 003°45'0 0.0
2018-Apr-11 03:29N 51°56' E 003°45'0 0.0
2018-Apr-11 02:59N 51°56' E 003°45'0 0.1
2018-Apr-11 02:29N 51°56' E 003°45'0 0.1
2018-Apr-11 01:12N 51°56' E 003°45'0 0.1
2018-Apr-11 00:54N 51°56' E 003°45'0 0.0
2018-Apr-11 00:25N 51°56' E 003°45'0 0.1
2018-Apr-10 23:49N 51°56' E 003°45'0 0.0
2018-Apr-10 23:28N 51°56' E 003°45'0 0.0
2018-Apr-10 22:56N 51°56' E 003°45'0 0.0
2018-Apr-10 22:20N 51°56' E 003°45'0 0.0
2018-Apr-10 21:59N 51°56' E 003°45'0 0.0
2018-Apr-10 21:12N 51°56' E 003°45'0 0.2
2018-Apr-10 20:51N 51°56' E 003°45'0 0.2
2018-Apr-10 20:18N 51°56' E 003°45'0 0.2
2018-Apr-10 19:54N 51°56' E 003°45'0 0.0
2018-Apr-10 19:28N 51°56' E 003°45'0 0.0
2018-Apr-10 18:52N 51°56' E 003°45'0 0.0
2018-Apr-10 18:25N 51°56' E 003°45'0 0.1
2018-Apr-10 17:59N 51°56' E 003°45'0 0.0
2018-Apr-10 17:29N 51°56' E 003°45'0 0.0
2018-Apr-10 16:59N 51°56' E 003°45'0 0.0
2018-Apr-10 16:30N 51°56' E 003°45'0 0.0
2018-Apr-10 15:57N 51°56' E 003°45'0 0.0
2018-Apr-10 15:30N 51°56' E 003°45'0 0.0
2018-Apr-10 14:55N 51°56' E 003°45'0 0.0
2018-Apr-10 14:28N 51°56' E 003°45'0 0.1
2018-Apr-10 13:58N 51°56' E 003°45'0 0.1
2018-Apr-10 13:29N 51°56' E 003°45'0 0.1
2018-Apr-10 12:44N 51°56' E 003°45'0 0.0
2018-Apr-10 12:26N 51°56' E 003°45'0 0.1
2018-Apr-10 11:54N 51°56' E 003°45'0 0.0
2018-Apr-10 11:09N 51°56' E 003°45'0 0.0
2018-Apr-10 10:51N 51°56' E 003°45'0 0.0
2018-Apr-10 10:31N 51°56' E 003°45'0 0.0
2018-Apr-10 09:58N 51°56' E 003°45'0 0.0
2018-Apr-10 09:10N 51°56' E 003°45'0 0.0
2018-Apr-10 08:58N 51°56' E 003°45'0 0.0
2018-Apr-10 08:29N 51°56' E 003°45'0 0.0
2018-Apr-10 07:59N 51°56' E 003°45'0 0.2
2018-Apr-10 07:23N 51°56' E 003°45'0 0.3
2018-Apr-10 06:57N 51°56' E 003°45'0 0.1
2018-Apr-10 06:30N 51°56' E 003°45'0 0.0
2018-Apr-10 05:48N 51°56' E 003°45'0 0.0
2018-Apr-10 05:28N 51°56' E 003°45'0 0.0
2018-Apr-10 04:55N 51°56' E 003°45'0 0.0
2018-Apr-10 04:25N 51°56' E 003°45'0 0.0
2018-Apr-10 03:47N 51°56' E 003°45'0 0.0
2018-Apr-10 03:29N 51°56' E 003°45'0 0.0
2018-Apr-10 02:44N 51°56' E 003°45'0 0.0
2018-Apr-10 02:30N 51°56' E 003°45'0 0.0
2018-Apr-10 01:57N 51°56' E 003°45'0 0.0
2018-Apr-10 01:24N 51°56' E 003°45'0 0.0
2018-Apr-10 00:58N 51°56' E 003°45'0 0.1
2018-Apr-10 00:28N 51°56' E 003°45'0 0.0
2018-Apr-09 23:52N 51°56' E 003°45'0 0.1
2018-Apr-09 23:26N 51°56' E 003°45'0 0.1
2018-Apr-09 22:59N 51°56' E 003°45'0 0.0
2018-Apr-09 22:11N 51°56' E 003°45'0 0.2
2018-Apr-09 21:57N 51°56' E 003°45'0 0.0
2018-Apr-09 21:24N 51°56' E 003°45'0 0.1
2018-Apr-09 20:57N 51°56' E 003°45'0 0.0
2018-Apr-09 20:30N 51°56' E 003°45'0 0.1
2018-Apr-09 19:43N 51°56' E 003°45'0 0.0
2018-Apr-09 19:28N 51°56' E 003°45'0 0.0
2018-Apr-09 18:38N 51°56' E 003°45'0 0.0
2018-Apr-09 18:29N 51°56' E 003°45'0 0.0
2018-Apr-09 17:26N 51°56' E 003°45'0 0.0
2018-Apr-09 16:54N 51°56' E 003°45'0 0.0
2018-Apr-09 16:30N 51°56' E 003°45'0 0.0
2018-Apr-09 16:00N 51°56' E 003°45'0 0.0
2018-Apr-09 15:19N 51°56' E 003°45'0 0.0
2018-Apr-09 14:55N 51°56' E 003°45'0 0.0
2018-Apr-09 14:28N 51°56' E 003°45'0 0.0
2018-Apr-09 13:56N 51°56' E 003°45'0 0.0
2018-Apr-09 13:20N 51°56' E 003°45'0 0.0
2018-Apr-09 11:57N 51°56' E 003°45'0 0.1
2018-Apr-09 11:30N 51°56' E 003°45'0 0.1
2018-Apr-09 10:46N 51°56' E 003°45'0 0.2
2018-Apr-09 10:28N 51°56' E 003°45'0 0.1
2018-Apr-09 09:55N 51°56' E 003°45'0 0.0
2018-Apr-09 09:25N 51°56' E 003°45'0 0.1
2018-Apr-09 08:59N 51°56' E 003°45'0 0.0
2018-Apr-09 08:29N 51°56' E 003°45'0 0.1
2018-Apr-09 06:45N 51°56' E 003°45'0 0.0
2018-Apr-09 06:27N 51°56' E 003°45'0 0.1
2018-Apr-09 05:55N 51°56' E 003°45'0 0.1
2018-Apr-09 05:25N 51°56' E 003°45'0 0.1
2018-Apr-09 04:58N 51°56' E 003°45'0 0.0
2018-Apr-09 04:29N 51°56' E 003°45'0 0.1
2018-Apr-09 03:53N 51°56' E 003°45'0 0.1
2018-Apr-09 03:29N 51°56' E 003°45'0 0.0
2018-Apr-09 02:12N 51°56' E 003°45'0 0.0
2018-Apr-09 02:00N 51°56' E 003°45'0 0.0
2018-Apr-09 01:19N 51°56' E 003°45'0 0.0
2018-Apr-09 00:43N 51°56' E 003°45'0 0.0
2018-Apr-09 00:22N 51°56' E 003°45'0 0.0
2018-Apr-08 23:53N 51°56' E 003°45'0 0.0
2018-Apr-08 23:29N 51°56' E 003°45'0 0.0
2018-Apr-08 22:59N 51°56' E 003°45'0 0.1
2018-Apr-08 22:30N 51°56' E 003°45'0 0.2
2018-Apr-08 21:48N 51°56' E 003°45'0 0.1
2018-Apr-08 21:24N 51°56' E 003°45'0 0.0
2018-Apr-08 21:01N 51°56' E 003°45'0 0.0
2018-Apr-08 20:19N 51°56' E 003°45'0 0.0
2018-Apr-08 19:58N 51°56' E 003°45'0 0.0
2018-Apr-08 19:23N 51°56' E 003°45'0 0.1
2018-Apr-08 18:59N 51°56' E 003°45'0 0.0
2018-Apr-08 18:26N 51°56' E 003°45'0 0.1
2018-Apr-08 17:59N 51°56' E 003°45'0 0.2
2018-Apr-08 17:30N 51°56' E 003°45'0 0.1
2018-Apr-08 16:54N 51°56' E 003°45'0 0.1
2018-Apr-08 16:27N 51°56' E 003°45'0 0.0
2018-Apr-08 15:58N 51°56' E 003°45'0 0.0
2018-Apr-08 15:25N 51°56' E 003°45'0 0.0
2018-Apr-08 14:58N 51°56' E 003°45'0 0.0
2018-Apr-08 14:29N 51°56' E 003°45'0 0.0
2018-Apr-08 13:56N 51°56' E 003°45'0 0.0
2018-Apr-08 13:29N 51°56' E 003°45'0 0.0
2018-Apr-08 13:00N 51°56' E 003°45'0 0.0
2018-Apr-08 12:30N 51°56' E 003°45'0 0.0
2018-Apr-08 12:00N 51°56' E 003°45'0 0.0
2018-Apr-08 11:25N 51°56' E 003°45'0 0.1
2018-Apr-08 10:58N 51°56' E 003°45'0 0.0
2018-Apr-08 10:28N 51°56' E 003°45'0 0.1
2018-Apr-08 09:53N 51°56' E 003°45'0 0.1
2018-Apr-08 09:17N 51°56' E 003°45'0 0.1
2018-Apr-08 08:59N 51°56' E 003°45'0 0.1
2018-Apr-08 08:24N 51°56' E 003°45'0 0.0
2018-Apr-08 08:00N 51°56' E 003°45'0 0.0
2018-Apr-08 07:27N 51°56' E 003°45'0 0.0
2018-Apr-08 06:55N 51°56' E 003°45'0 0.0
2018-Apr-08 06:22N 51°56' E 003°45'0 0.0
2018-Apr-08 05:58N 51°56' E 003°45'0 0.1
2018-Apr-08 05:26N 51°56' E 003°45'0 0.2
2018-Apr-08 04:59N 51°56' E 003°45'0 0.2
2018-Apr-08 04:26N 51°56' E 003°45'0 0.0
2018-Apr-08 04:00N 51°56' E 003°45'0 0.0
2018-Apr-08 03:24N 51°56' E 003°45'0 0.0
2018-Apr-08 02:57N 51°56' E 003°45'  

Dump ship's entire track history